sensor_id;sensor_type;location;lat;lon;timestamp;P1;durP1;ratioP1;P2;durP2;ratioP2
32505;SDS011;18955;51.224;8.482;2024-01-30T00:00:23;7.63;;;5.00;;
32505;SDS011;18955;51.224;8.482;2024-01-30T00:02:49;4.75;;;4.15;;
32505;SDS011;18955;51.224;8.482;2024-01-30T00:05:15;11.30;;;6.00;;
32505;SDS011;18955;51.224;8.482;2024-01-30T00:07:42;11.52;;;5.95;;
32505;SDS011;18955;51.224;8.482;2024-01-30T00:12:35;10.68;;;5.80;;
32505;SDS011;18955;51.224;8.482;2024-01-30T00:15:01;7.00;;;5.32;;
32505;SDS011;18955;51.224;8.482;2024-01-30T00:17:29;12.25;;;6.10;;
32505;SDS011;18955;51.224;8.482;2024-01-30T00:19:56;8.85;;;6.43;;
32505;SDS011;18955;51.224;8.482;2024-01-30T00:22:22;6.75;;;4.43;;
32505;SDS011;18955;51.224;8.482;2024-01-30T00:27:15;10.50;;;6.10;;
32505;SDS011;18955;51.224;8.482;2024-01-30T00:29:41;8.52;;;5.80;;
32505;SDS011;18955;51.224;8.482;2024-01-30T00:32:08;6.80;;;4.22;;
32505;SDS011;18955;51.224;8.482;2024-01-30T00:34:34;7.97;;;3.60;;
32505;SDS011;18955;51.224;8.482;2024-01-30T00:37:00;7.60;;;4.05;;
32505;SDS011;18955;51.224;8.482;2024-01-30T00:39:26;8.43;;;4.63;;
32505;SDS011;18955;51.224;8.482;2024-01-30T00:41:53;10.00;;;6.15;;
32505;SDS011;18955;51.224;8.482;2024-01-30T00:44:19;6.78;;;3.83;;
32505;SDS011;18955;51.224;8.482;2024-01-30T00:46:46;13.63;;;6.20;;
32505;SDS011;18955;51.224;8.482;2024-01-30T00:49:12;10.02;;;5.38;;
32505;SDS011;18955;51.224;8.482;2024-01-30T00:51:38;10.38;;;5.95;;
32505;SDS011;18955;51.224;8.482;2024-01-30T00:54:04;8.82;;;5.85;;
32505;SDS011;18955;51.224;8.482;2024-01-30T00:56:32;10.45;;;5.50;;
32505;SDS011;18955;51.224;8.482;2024-01-30T01:01:24;10.23;;;5.65;;
32505;SDS011;18955;51.224;8.482;2024-01-30T01:03:51;7.00;;;4.22;;
32505;SDS011;18955;51.224;8.482;2024-01-30T01:06:17;10.35;;;5.93;;
32505;SDS011;18955;51.224;8.482;2024-01-30T01:08:43;5.47;;;3.72;;
32505;SDS011;18955;51.224;8.482;2024-01-30T01:11:09;10.23;;;5.53;;
32505;SDS011;18955;51.224;8.482;2024-01-30T01:13:35;9.25;;;6.10;;
32505;SDS011;18955;51.224;8.482;2024-01-30T01:16:02;6.68;;;4.30;;
32505;SDS011;18955;51.224;8.482;2024-01-30T01:18:29;8.52;;;5.55;;
32505;SDS011;18955;51.224;8.482;2024-01-30T01:20:55;7.63;;;4.05;;
32505;SDS011;18955;51.224;8.482;2024-01-30T01:23:21;10.43;;;5.30;;
32505;SDS011;18955;51.224;8.482;2024-01-30T01:25:48;8.13;;;5.63;;
32505;SDS011;18955;51.224;8.482;2024-01-30T01:28:14;7.47;;;4.85;;
32505;SDS011;18955;51.224;8.482;2024-01-30T01:30:40;7.65;;;4.32;;
32505;SDS011;18955;51.224;8.482;2024-01-30T01:33:06;7.03;;;4.28;;
32505;SDS011;18955;51.224;8.482;2024-01-30T01:35:32;5.90;;;4.10;;
32505;SDS011;18955;51.224;8.482;2024-01-30T01:40:26;9.68;;;5.10;;
32505;SDS011;18955;51.224;8.482;2024-01-30T01:42:53;9.13;;;6.00;;
32505;SDS011;18955;51.224;8.482;2024-01-30T01:45:20;8.63;;;5.22;;
32505;SDS011;18955;51.224;8.482;2024-01-30T01:50:16;8.10;;;5.32;;
32505;SDS011;18955;51.224;8.482;2024-01-30T01:52:48;9.27;;;5.25;;
32505;SDS011;18955;51.224;8.482;2024-01-30T01:55:17;9.27;;;5.45;;
32505;SDS011;18955;51.224;8.482;2024-01-30T01:57:50;7.20;;;5.20;;
32505;SDS011;18955;51.224;8.482;2024-01-30T02:00:18;11.40;;;5.60;;
32505;SDS011;18955;51.224;8.482;2024-01-30T02:02:45;7.78;;;5.40;;
32505;SDS011;18955;51.224;8.482;2024-01-30T02:05:12;9.55;;;5.28;;
32505;SDS011;18955;51.224;8.482;2024-01-30T02:10:34;8.70;;;5.57;;
32505;SDS011;18955;51.224;8.482;2024-01-30T02:13:10;9.95;;;5.65;;
32505;SDS011;18955;51.224;8.482;2024-01-30T02:15:42;10.40;;;5.45;;
32505;SDS011;18955;51.224;8.482;2024-01-30T02:18:09;9.50;;;5.70;;
32505;SDS011;18955;51.224;8.482;2024-01-30T02:20:35;5.30;;;4.25;;
32505;SDS011;18955;51.224;8.482;2024-01-30T02:23:03;13.07;;;5.55;;
32505;SDS011;18955;51.224;8.482;2024-01-30T02:25:36;8.68;;;5.85;;
32505;SDS011;18955;51.224;8.482;2024-01-30T02:28:12;8.52;;;5.50;;
32505;SDS011;18955;51.224;8.482;2024-01-30T02:30:39;6.78;;;5.15;;
32505;SDS011;18955;51.224;8.482;2024-01-30T02:33:05;9.30;;;5.68;;
32505;SDS011;18955;51.224;8.482;2024-01-30T02:35:32;9.02;;;5.55;;
32505;SDS011;18955;51.224;8.482;2024-01-30T02:40:25;9.75;;;4.85;;
32505;SDS011;18955;51.224;8.482;2024-01-30T02:42:51;8.50;;;5.43;;
32505;SDS011;18955;51.224;8.482;2024-01-30T02:45:17;6.05;;;4.32;;
32505;SDS011;18955;51.224;8.482;2024-01-30T02:47:45;9.82;;;6.68;;
32505;SDS011;18955;51.224;8.482;2024-01-30T02:50:12;9.82;;;5.22;;
32505;SDS011;18955;51.224;8.482;2024-01-30T02:52:38;11.70;;;5.68;;
32505;SDS011;18955;51.224;8.482;2024-01-30T02:55:05;12.23;;;6.20;;
32505;SDS011;18955;51.224;8.482;2024-01-30T02:57:31;11.23;;;6.20;;
32505;SDS011;18955;51.224;8.482;2024-01-30T02:59:57;6.65;;;4.20;;
32505;SDS011;18955;51.224;8.482;2024-01-30T03:02:24;9.13;;;5.75;;
32505;SDS011;18955;51.224;8.482;2024-01-30T03:04:50;14.00;;;6.03;;
32505;SDS011;18955;51.224;8.482;2024-01-30T03:07:16;11.73;;;6.00;;
32505;SDS011;18955;51.224;8.482;2024-01-30T03:09:42;12.35;;;5.18;;
32505;SDS011;18955;51.224;8.482;2024-01-30T03:14:35;9.40;;;5.55;;
32505;SDS011;18955;51.224;8.482;2024-01-30T03:17:02;9.75;;;6.05;;
32505;SDS011;18955;51.224;8.482;2024-01-30T03:19:28;8.77;;;5.97;;
32505;SDS011;18955;51.224;8.482;2024-01-30T03:21:54;10.95;;;6.38;;
32505;SDS011;18955;51.224;8.482;2024-01-30T03:24:21;8.82;;;5.75;;
32505;SDS011;18955;51.224;8.482;2024-01-30T03:26:47;7.35;;;5.13;;
32505;SDS011;18955;51.224;8.482;2024-01-30T03:29:13;12.23;;;6.10;;
32505;SDS011;18955;51.224;8.482;2024-01-30T03:31:39;7.45;;;4.65;;
32505;SDS011;18955;51.224;8.482;2024-01-30T03:34:05;10.10;;;5.68;;
32505;SDS011;18955;51.224;8.482;2024-01-30T03:36:32;9.13;;;5.97;;
32505;SDS011;18955;51.224;8.482;2024-01-30T03:39:00;11.65;;;5.50;;
32505;SDS011;18955;51.224;8.482;2024-01-30T03:41:27;9.27;;;5.43;;
32505;SDS011;18955;51.224;8.482;2024-01-30T03:43:53;10.40;;;5.75;;
32505;SDS011;18955;51.224;8.482;2024-01-30T03:46:19;6.88;;;4.50;;
32505;SDS011;18955;51.224;8.482;2024-01-30T03:48:45;7.38;;;4.35;;
32505;SDS011;18955;51.224;8.482;2024-01-30T03:51:11;11.52;;;5.53;;
32505;SDS011;18955;51.224;8.482;2024-01-30T03:53:41;10.18;;;6.22;;
32505;SDS011;18955;51.224;8.482;2024-01-30T03:56:08;10.00;;;6.47;;
32505;SDS011;18955;51.224;8.482;2024-01-30T03:58:35;8.63;;;5.88;;
32505;SDS011;18955;51.224;8.482;2024-01-30T04:01:01;8.00;;;5.70;;
32505;SDS011;18955;51.224;8.482;2024-01-30T04:03:27;10.40;;;5.22;;
32505;SDS011;18955;51.224;8.482;2024-01-30T04:05:53;9.25;;;5.53;;
32505;SDS011;18955;51.224;8.482;2024-01-30T04:08:20;7.38;;;5.40;;
32505;SDS011;18955;51.224;8.482;2024-01-30T04:10:46;7.50;;;5.07;;
32505;SDS011;18955;51.224;8.482;2024-01-30T04:13:13;10.32;;;5.78;;
32505;SDS011;18955;51.224;8.482;2024-01-30T04:15:39;7.65;;;4.28;;
32505;SDS011;18955;51.224;8.482;2024-01-30T04:18:05;9.13;;;5.22;;
32505;SDS011;18955;51.224;8.482;2024-01-30T04:20:32;7.30;;;4.97;;
32505;SDS011;18955;51.224;8.482;2024-01-30T04:22:58;5.45;;;3.55;;
32505;SDS011;18955;51.224;8.482;2024-01-30T04:25:24;5.13;;;3.38;;
32505;SDS011;18955;51.224;8.482;2024-01-30T04:27:50;7.72;;;5.35;;
32505;SDS011;18955;51.224;8.482;2024-01-30T04:30:17;9.30;;;5.07;;
32505;SDS011;18955;51.224;8.482;2024-01-30T04:32:43;9.35;;;5.70;;
32505;SDS011;18955;51.224;8.482;2024-01-30T04:35:09;4.95;;;3.65;;
32505;SDS011;18955;51.224;8.482;2024-01-30T04:37:35;6.70;;;5.25;;
32505;SDS011;18955;51.224;8.482;2024-01-30T04:40:02;7.43;;;5.03;;
32505;SDS011;18955;51.224;8.482;2024-01-30T04:42:28;8.15;;;4.78;;
32505;SDS011;18955;51.224;8.482;2024-01-30T04:44:55;6.03;;;3.78;;
32505;SDS011;18955;51.224;8.482;2024-01-30T04:47:21;9.82;;;5.47;;
32505;SDS011;18955;51.224;8.482;2024-01-30T04:49:47;8.38;;;5.03;;
32505;SDS011;18955;51.224;8.482;2024-01-30T04:52:13;7.88;;;4.90;;
32505;SDS011;18955;51.224;8.482;2024-01-30T04:54:39;7.88;;;3.55;;
32505;SDS011;18955;51.224;8.482;2024-01-30T04:57:06;5.13;;;3.45;;
32505;SDS011;18955;51.224;8.482;2024-01-30T04:59:35;8.60;;;5.00;;
32505;SDS011;18955;51.224;8.482;2024-01-30T05:02:02;9.77;;;5.40;;
32505;SDS011;18955;51.224;8.482;2024-01-30T05:04:28;7.45;;;4.78;;
32505;SDS011;18955;51.224;8.482;2024-01-30T05:06:54;6.82;;;4.95;;
32505;SDS011;18955;51.224;8.482;2024-01-30T05:09:20;7.32;;;4.78;;
32505;SDS011;18955;51.224;8.482;2024-01-30T05:11:47;8.07;;;4.95;;
32505;SDS011;18955;51.224;8.482;2024-01-30T05:14:13;5.78;;;4.43;;
32505;SDS011;18955;51.224;8.482;2024-01-30T05:16:40;7.95;;;4.40;;
32505;SDS011;18955;51.224;8.482;2024-01-30T05:19:08;7.40;;;4.65;;
32505;SDS011;18955;51.224;8.482;2024-01-30T05:21:34;6.97;;;4.53;;
32505;SDS011;18955;51.224;8.482;2024-01-30T05:24:01;7.07;;;4.05;;
32505;SDS011;18955;51.224;8.482;2024-01-30T05:26:27;7.30;;;4.38;;
32505;SDS011;18955;51.224;8.482;2024-01-30T05:28:53;4.78;;;3.20;;
32505;SDS011;18955;51.224;8.482;2024-01-30T05:31:19;6.43;;;4.03;;
32505;SDS011;18955;51.224;8.482;2024-01-30T05:33:46;6.75;;;4.05;;
32505;SDS011;18955;51.224;8.482;2024-01-30T05:36:13;14.57;;;4.60;;
32505;SDS011;18955;51.224;8.482;2024-01-30T05:38:39;9.70;;;4.30;;
32505;SDS011;18955;51.224;8.482;2024-01-30T05:41:05;6.00;;;3.88;;
32505;SDS011;18955;51.224;8.482;2024-01-30T05:43:31;6.07;;;3.83;;
32505;SDS011;18955;51.224;8.482;2024-01-30T05:45:58;4.57;;;2.97;;
32505;SDS011;18955;51.224;8.482;2024-01-30T05:48:24;6.20;;;4.18;;
32505;SDS011;18955;51.224;8.482;2024-01-30T05:50:50;5.13;;;3.13;;
32505;SDS011;18955;51.224;8.482;2024-01-30T05:53:16;10.13;;;4.10;;
32505;SDS011;18955;51.224;8.482;2024-01-30T05:55:43;2.80;;;2.55;;
32505;SDS011;18955;51.224;8.482;2024-01-30T05:58:09;10.27;;;4.30;;
32505;SDS011;18955;51.224;8.482;2024-01-30T06:00:35;4.18;;;2.80;;
32505;SDS011;18955;51.224;8.482;2024-01-30T06:03:02;6.47;;;2.83;;
32505;SDS011;18955;51.224;8.482;2024-01-30T06:05:28;6.65;;;3.70;;
32505;SDS011;18955;51.224;8.482;2024-01-30T06:07:54;5.78;;;3.63;;
32505;SDS011;18955;51.224;8.482;2024-01-30T06:10:20;8.75;;;3.97;;
32505;SDS011;18955;51.224;8.482;2024-01-30T06:12:47;3.65;;;2.40;;
32505;SDS011;18955;51.224;8.482;2024-01-30T06:17:40;5.85;;;3.10;;
32505;SDS011;18955;51.224;8.482;2024-01-30T06:20:06;5.97;;;3.22;;
32505;SDS011;18955;51.224;8.482;2024-01-30T06:22:32;5.72;;;3.63;;
32505;SDS011;18955;51.224;8.482;2024-01-30T06:24:59;5.55;;;3.65;;
32505;SDS011;18955;51.224;8.482;2024-01-30T06:27:25;4.75;;;3.33;;
32505;SDS011;18955;51.224;8.482;2024-01-30T06:29:51;4.85;;;3.45;;
32505;SDS011;18955;51.224;8.482;2024-01-30T06:32:18;7.03;;;3.75;;
32505;SDS011;18955;51.224;8.482;2024-01-30T06:34:44;3.85;;;3.42;;
32505;SDS011;18955;51.224;8.482;2024-01-30T06:37:10;4.18;;;3.20;;
32505;SDS011;18955;51.224;8.482;2024-01-30T06:39:37;6.03;;;3.50;;
32505;SDS011;18955;51.224;8.482;2024-01-30T06:42:03;3.88;;;2.63;;
32505;SDS011;18955;51.224;8.482;2024-01-30T06:46:56;7.47;;;3.85;;
32505;SDS011;18955;51.224;8.482;2024-01-30T06:49:22;8.82;;;3.40;;
32505;SDS011;18955;51.224;8.482;2024-01-30T06:51:48;4.38;;;3.50;;
32505;SDS011;18955;51.224;8.482;2024-01-30T06:54:15;5.50;;;2.88;;
32505;SDS011;18955;51.224;8.482;2024-01-30T06:56:41;4.97;;;2.67;;
32505;SDS011;18955;51.224;8.482;2024-01-30T06:59:07;4.07;;;2.45;;
32505;SDS011;18955;51.224;8.482;2024-01-30T07:01:34;4.65;;;2.92;;
32505;SDS011;18955;51.224;8.482;2024-01-30T07:04:00;5.28;;;3.17;;
32505;SDS011;18955;51.224;8.482;2024-01-30T07:06:26;6.78;;;3.28;;
32505;SDS011;18955;51.224;8.482;2024-01-30T07:08:52;6.25;;;3.67;;
32505;SDS011;18955;51.224;8.482;2024-01-30T07:11:19;5.10;;;3.30;;
32505;SDS011;18955;51.224;8.482;2024-01-30T07:13:48;7.57;;;3.45;;
32505;SDS011;18955;51.224;8.482;2024-01-30T07:18:41;4.47;;;2.92;;
32505;SDS011;18955;51.224;8.482;2024-01-30T07:21:07;4.97;;;3.03;;
32505;SDS011;18955;51.224;8.482;2024-01-30T07:23:33;4.82;;;3.17;;
32505;SDS011;18955;51.224;8.482;2024-01-30T07:26:03;7.07;;;3.20;;
32505;SDS011;18955;51.224;8.482;2024-01-30T07:28:29;6.32;;;3.00;;
32505;SDS011;18955;51.224;8.482;2024-01-30T07:30:56;6.32;;;3.20;;
32505;SDS011;18955;51.224;8.482;2024-01-30T07:33:22;2.97;;;2.42;;
32505;SDS011;18955;51.224;8.482;2024-01-30T07:35:48;6.28;;;3.58;;
32505;SDS011;18955;51.224;8.482;2024-01-30T07:38:15;8.15;;;3.22;;
32505;SDS011;18955;51.224;8.482;2024-01-30T07:40:41;3.45;;;2.97;;
32505;SDS011;18955;51.224;8.482;2024-01-30T07:43:07;9.90;;;3.83;;
32505;SDS011;18955;51.224;8.482;2024-01-30T07:45:34;7.47;;;3.88;;
32505;SDS011;18955;51.224;8.482;2024-01-30T07:48:00;5.13;;;3.45;;
32505;SDS011;18955;51.224;8.482;2024-01-30T07:50:26;6.68;;;3.22;;
32505;SDS011;18955;51.224;8.482;2024-01-30T07:52:53;4.20;;;2.88;;
32505;SDS011;18955;51.224;8.482;2024-01-30T07:55:20;4.35;;;3.05;;
32505;SDS011;18955;51.224;8.482;2024-01-30T07:57:51;4.25;;;3.28;;
32505;SDS011;18955;51.224;8.482;2024-01-30T08:00:18;7.60;;;3.72;;
32505;SDS011;18955;51.224;8.482;2024-01-30T08:02:48;6.30;;;3.20;;
32505;SDS011;18955;51.224;8.482;2024-01-30T08:05:14;4.88;;;3.28;;
32505;SDS011;18955;51.224;8.482;2024-01-30T08:07:41;6.30;;;2.95;;
32505;SDS011;18955;51.224;8.482;2024-01-30T08:10:08;5.75;;;3.22;;
32505;SDS011;18955;51.224;8.482;2024-01-30T08:12:36;5.72;;;2.97;;
32505;SDS011;18955;51.224;8.482;2024-01-30T08:15:04;3.47;;;2.42;;
32505;SDS011;18955;51.224;8.482;2024-01-30T08:17:31;7.75;;;3.60;;
32505;SDS011;18955;51.224;8.482;2024-01-30T08:19:57;4.22;;;3.17;;
32505;SDS011;18955;51.224;8.482;2024-01-30T08:22:24;8.88;;;3.78;;
32505;SDS011;18955;51.224;8.482;2024-01-30T08:24:50;4.60;;;3.50;;
32505;SDS011;18955;51.224;8.482;2024-01-30T08:27:16;5.90;;;3.40;;
32505;SDS011;18955;51.224;8.482;2024-01-30T08:29:42;6.45;;;3.85;;
32505;SDS011;18955;51.224;8.482;2024-01-30T08:32:09;5.47;;;3.30;;
32505;SDS011;18955;51.224;8.482;2024-01-30T08:34:35;3.95;;;2.88;;
32505;SDS011;18955;51.224;8.482;2024-01-30T08:37:01;4.25;;;2.45;;
32505;SDS011;18955;51.224;8.482;2024-01-30T08:39:27;5.30;;;2.95;;
32505;SDS011;18955;51.224;8.482;2024-01-30T08:41:54;5.00;;;2.95;;
32505;SDS011;18955;51.224;8.482;2024-01-30T08:44:20;4.68;;;2.35;;
32505;SDS011;18955;51.224;8.482;2024-01-30T08:46:46;4.55;;;3.20;;
32505;SDS011;18955;51.224;8.482;2024-01-30T08:49:13;5.72;;;2.83;;
32505;SDS011;18955;51.224;8.482;2024-01-30T08:51:39;5.13;;;2.72;;
32505;SDS011;18955;51.224;8.482;2024-01-30T08:54:05;6.18;;;3.45;;
32505;SDS011;18955;51.224;8.482;2024-01-30T08:56:32;4.25;;;3.22;;
32505;SDS011;18955;51.224;8.482;2024-01-30T08:58:58;7.15;;;3.00;;
32505;SDS011;18955;51.224;8.482;2024-01-30T09:01:25;5.10;;;3.45;;
32505;SDS011;18955;51.224;8.482;2024-01-30T09:03:52;6.05;;;3.17;;
32505;SDS011;18955;51.224;8.482;2024-01-30T09:06:18;8.05;;;3.47;;
32505;SDS011;18955;51.224;8.482;2024-01-30T09:08:44;5.45;;;3.15;;
32505;SDS011;18955;51.224;8.482;2024-01-30T09:11:11;5.35;;;3.20;;
32505;SDS011;18955;51.224;8.482;2024-01-30T09:13:38;5.07;;;3.35;;
32505;SDS011;18955;51.224;8.482;2024-01-30T09:16:05;5.82;;;4.28;;
32505;SDS011;18955;51.224;8.482;2024-01-30T09:18:31;9.52;;;4.30;;
32505;SDS011;18955;51.224;8.482;2024-01-30T09:20:58;6.18;;;4.03;;
32505;SDS011;18955;51.224;8.482;2024-01-30T09:23:25;7.65;;;4.38;;
32505;SDS011;18955;51.224;8.482;2024-01-30T09:25:53;7.63;;;3.75;;
32505;SDS011;18955;51.224;8.482;2024-01-30T09:28:19;9.80;;;4.43;;
32505;SDS011;18955;51.224;8.482;2024-01-30T09:30:45;7.47;;;3.33;;
32505;SDS011;18955;51.224;8.482;2024-01-30T09:33:11;4.88;;;3.13;;
32505;SDS011;18955;51.224;8.482;2024-01-30T09:35:38;4.63;;;2.83;;
32505;SDS011;18955;51.224;8.482;2024-01-30T09:38:04;5.65;;;2.65;;
32505;SDS011;18955;51.224;8.482;2024-01-30T09:40:30;7.97;;;4.30;;
32505;SDS011;18955;51.224;8.482;2024-01-30T09:42:57;5.47;;;4.20;;
32505;SDS011;18955;51.224;8.482;2024-01-30T09:45:27;9.07;;;3.97;;
32505;SDS011;18955;51.224;8.482;2024-01-30T09:47:53;5.55;;;3.45;;
32505;SDS011;18955;51.224;8.482;2024-01-30T09:50:20;9.82;;;3.67;;
32505;SDS011;18955;51.224;8.482;2024-01-30T09:52:46;7.28;;;3.95;;
32505;SDS011;18955;51.224;8.482;2024-01-30T09:57:39;7.78;;;3.85;;
32505;SDS011;18955;51.224;8.482;2024-01-30T10:00:07;10.30;;;4.30;;
32505;SDS011;18955;51.224;8.482;2024-01-30T10:02:40;10.35;;;4.15;;
32505;SDS011;18955;51.224;8.482;2024-01-30T10:07:34;6.68;;;3.92;;
32505;SDS011;18955;51.224;8.482;2024-01-30T10:10:00;6.53;;;3.20;;
32505;SDS011;18955;51.224;8.482;2024-01-30T10:12:26;4.85;;;2.90;;
32505;SDS011;18955;51.224;8.482;2024-01-30T10:14:53;7.45;;;3.78;;
32505;SDS011;18955;51.224;8.482;2024-01-30T10:17:24;7.65;;;4.38;;
32505;SDS011;18955;51.224;8.482;2024-01-30T10:19:52;7.05;;;3.97;;
32505;SDS011;18955;51.224;8.482;2024-01-30T10:22:19;6.85;;;3.97;;
32505;SDS011;18955;51.224;8.482;2024-01-30T10:24:45;10.52;;;4.18;;
32505;SDS011;18955;51.224;8.482;2024-01-30T10:27:12;9.52;;;4.10;;
32505;SDS011;18955;51.224;8.482;2024-01-30T10:29:38;10.60;;;4.78;;
32505;SDS011;18955;51.224;8.482;2024-01-30T10:32:04;6.88;;;3.33;;
32505;SDS011;18955;51.224;8.482;2024-01-30T10:34:31;7.80;;;4.70;;
32505;SDS011;18955;51.224;8.482;2024-01-30T10:37:09;6.53;;;4.32;;
32505;SDS011;18955;51.224;8.482;2024-01-30T10:39:38;9.02;;;4.97;;
32505;SDS011;18955;51.224;8.482;2024-01-30T10:42:06;8.35;;;4.20;;
32505;SDS011;18955;51.224;8.482;2024-01-30T10:44:37;10.02;;;4.75;;
32505;SDS011;18955;51.224;8.482;2024-01-30T10:47:11;7.43;;;4.72;;
32505;SDS011;18955;51.224;8.482;2024-01-30T10:49:41;8.52;;;4.55;;
32505;SDS011;18955;51.224;8.482;2024-01-30T10:52:09;8.45;;;4.30;;
32505;SDS011;18955;51.224;8.482;2024-01-30T10:54:38;9.43;;;4.53;;
32505;SDS011;18955;51.224;8.482;2024-01-30T10:57:08;9.25;;;4.45;;
32505;SDS011;18955;51.224;8.482;2024-01-30T10:59:36;13.73;;;4.53;;
32505;SDS011;18955;51.224;8.482;2024-01-30T11:02:03;8.88;;;4.35;;
32505;SDS011;18955;51.224;8.482;2024-01-30T11:04:55;7.57;;;4.32;;
32505;SDS011;18955;51.224;8.482;2024-01-30T11:07:29;8.98;;;4.65;;
32505;SDS011;18955;51.224;8.482;2024-01-30T11:12:28;8.55;;;4.40;;
32505;SDS011;18955;51.224;8.482;2024-01-30T11:15:15;9.70;;;4.65;;
32505;SDS011;18955;51.224;8.482;2024-01-30T11:22:52;11.27;;;4.82;;
32505;SDS011;18955;51.224;8.482;2024-01-30T11:25:22;8.93;;;4.97;;
32505;SDS011;18955;51.224;8.482;2024-01-30T11:27:50;8.05;;;4.55;;
32505;SDS011;18955;51.224;8.482;2024-01-30T11:30:24;9.50;;;4.68;;
32505;SDS011;18955;51.224;8.482;2024-01-30T11:35:38;13.93;;;5.10;;
32505;SDS011;18955;51.224;8.482;2024-01-30T11:38:06;7.55;;;4.75;;
32505;SDS011;18955;51.224;8.482;2024-01-30T11:40:34;10.65;;;4.82;;
32505;SDS011;18955;51.224;8.482;2024-01-30T11:43:02;10.48;;;5.13;;
32505;SDS011;18955;51.224;8.482;2024-01-30T11:45:30;10.68;;;5.35;;
32505;SDS011;18955;51.224;8.482;2024-01-30T11:47:57;7.65;;;4.70;;
32505;SDS011;18955;51.224;8.482;2024-01-30T11:50:25;7.90;;;4.70;;
32505;SDS011;18955;51.224;8.482;2024-01-30T11:52:52;10.50;;;5.07;;
32505;SDS011;18955;51.224;8.482;2024-01-30T11:55:21;9.02;;;4.88;;
32505;SDS011;18955;51.224;8.482;2024-01-30T11:57:48;8.60;;;5.15;;
32505;SDS011;18955;51.224;8.482;2024-01-30T12:02:42;11.45;;;5.22;;
32505;SDS011;18955;51.224;8.482;2024-01-30T12:05:21;10.55;;;4.95;;
32505;SDS011;18955;51.224;8.482;2024-01-30T12:07:48;13.00;;;5.40;;
32505;SDS011;18955;51.224;8.482;2024-01-30T12:10:14;8.60;;;3.72;;
32505;SDS011;18955;51.224;8.482;2024-01-30T12:12:41;9.10;;;4.72;;
32505;SDS011;18955;51.224;8.482;2024-01-30T12:15:10;7.07;;;4.93;;
32505;SDS011;18955;51.224;8.482;2024-01-30T12:17:36;14.65;;;5.28;;
32505;SDS011;18955;51.224;8.482;2024-01-30T12:20:05;9.43;;;5.20;;
32505;SDS011;18955;51.224;8.482;2024-01-30T12:22:35;9.10;;;4.85;;
32505;SDS011;18955;51.224;8.482;2024-01-30T12:25:15;15.10;;;5.22;;
32505;SDS011;18955;51.224;8.482;2024-01-30T12:27:43;10.40;;;5.18;;
32505;SDS011;18955;51.224;8.482;2024-01-30T12:30:17;6.57;;;4.30;;
32505;SDS011;18955;51.224;8.482;2024-01-30T12:32:45;9.57;;;4.40;;
32505;SDS011;18955;51.224;8.482;2024-01-30T12:35:14;11.80;;;5.07;;
32505;SDS011;18955;51.224;8.482;2024-01-30T12:37:45;9.80;;;4.63;;
32505;SDS011;18955;51.224;8.482;2024-01-30T12:40:16;11.73;;;5.32;;
32505;SDS011;18955;51.224;8.482;2024-01-30T12:42:43;7.93;;;4.50;;
32505;SDS011;18955;51.224;8.482;2024-01-30T12:45:14;14.52;;;4.90;;
32505;SDS011;18955;51.224;8.482;2024-01-30T12:47:41;9.55;;;4.30;;
32505;SDS011;18955;51.224;8.482;2024-01-30T12:50:07;11.38;;;5.90;;
32505;SDS011;18955;51.224;8.482;2024-01-30T12:52:35;14.43;;;4.18;;
32505;SDS011;18955;51.224;8.482;2024-01-30T12:55:02;10.45;;;4.70;;
32505;SDS011;18955;51.224;8.482;2024-01-30T12:57:29;10.85;;;4.93;;
32505;SDS011;18955;51.224;8.482;2024-01-30T12:59:56;10.70;;;5.15;;
32505;SDS011;18955;51.224;8.482;2024-01-30T13:02:22;5.97;;;3.55;;
32505;SDS011;18955;51.224;8.482;2024-01-30T13:04:48;16.20;;;4.88;;
32505;SDS011;18955;51.224;8.482;2024-01-30T13:07:15;14.75;;;3.97;;
32505;SDS011;18955;51.224;8.482;2024-01-30T13:09:41;14.73;;;5.68;;
32505;SDS011;18955;51.224;8.482;2024-01-30T13:12:07;15.10;;;5.10;;
32505;SDS011;18955;51.224;8.482;2024-01-30T13:14:34;12.98;;;5.00;;
32505;SDS011;18955;51.224;8.482;2024-01-30T13:17:00;17.70;;;5.18;;
32505;SDS011;18955;51.224;8.482;2024-01-30T13:19:26;10.40;;;4.47;;
32505;SDS011;18955;51.224;8.482;2024-01-30T13:21:52;12.45;;;4.50;;
32505;SDS011;18955;51.224;8.482;2024-01-30T13:24:19;17.83;;;6.50;;
32505;SDS011;18955;51.224;8.482;2024-01-30T13:26:47;17.13;;;5.75;;
32505;SDS011;18955;51.224;8.482;2024-01-30T13:29:14;24.38;;;5.13;;
32505;SDS011;18955;51.224;8.482;2024-01-30T13:31:40;13.02;;;4.75;;
32505;SDS011;18955;51.224;8.482;2024-01-30T13:36:33;17.13;;;4.93;;
32505;SDS011;18955;51.224;8.482;2024-01-30T13:38:59;16.05;;;5.55;;
32505;SDS011;18955;51.224;8.482;2024-01-30T13:41:26;11.32;;;4.90;;
32505;SDS011;18955;51.224;8.482;2024-01-30T13:43:52;13.15;;;5.60;;
32505;SDS011;18955;51.224;8.482;2024-01-30T13:46:19;21.95;;;5.57;;
32505;SDS011;18955;51.224;8.482;2024-01-30T13:48:45;16.10;;;5.18;;
32505;SDS011;18955;51.224;8.482;2024-01-30T13:51:12;20.92;;;5.00;;
32505;SDS011;18955;51.224;8.482;2024-01-30T13:53:38;18.25;;;5.45;;
32505;SDS011;18955;51.224;8.482;2024-01-30T13:56:04;15.60;;;5.20;;
32505;SDS011;18955;51.224;8.482;2024-01-30T13:58:32;13.60;;;4.88;;
32505;SDS011;18955;51.224;8.482;2024-01-30T14:00:59;16.63;;;4.82;;
32505;SDS011;18955;51.224;8.482;2024-01-30T14:03:25;18.13;;;5.10;;
32505;SDS011;18955;51.224;8.482;2024-01-30T14:05:51;11.75;;;3.80;;
32505;SDS011;18955;51.224;8.482;2024-01-30T14:08:17;17.85;;;5.82;;
32505;SDS011;18955;51.224;8.482;2024-01-30T14:10:45;11.98;;;5.18;;
32505;SDS011;18955;51.224;8.482;2024-01-30T14:13:11;16.02;;;6.13;;
32505;SDS011;18955;51.224;8.482;2024-01-30T14:15:38;16.60;;;5.13;;
32505;SDS011;18955;51.224;8.482;2024-01-30T14:18:04;13.18;;;4.85;;
32505;SDS011;18955;51.224;8.482;2024-01-30T14:22:57;9.73;;;4.43;;
32505;SDS011;18955;51.224;8.482;2024-01-30T14:25:23;9.23;;;3.92;;
32505;SDS011;18955;51.224;8.482;2024-01-30T14:27:49;10.00;;;4.13;;
32505;SDS011;18955;51.224;8.482;2024-01-30T14:30:15;15.32;;;5.30;;
32505;SDS011;18955;51.224;8.482;2024-01-30T14:35:10;18.38;;;5.63;;
32505;SDS011;18955;51.224;8.482;2024-01-30T14:37:37;11.82;;;4.97;;
32505;SDS011;18955;51.224;8.482;2024-01-30T14:40:03;20.88;;;5.93;;
32505;SDS011;18955;51.224;8.482;2024-01-30T14:42:32;14.98;;;5.80;;
32505;SDS011;18955;51.224;8.482;2024-01-30T14:44:59;13.88;;;5.95;;
32505;SDS011;18955;51.224;8.482;2024-01-30T14:47:25;16.15;;;5.22;;
32505;SDS011;18955;51.224;8.482;2024-01-30T14:49:52;14.65;;;5.40;;
32505;SDS011;18955;51.224;8.482;2024-01-30T14:52:18;12.48;;;5.38;;
32505;SDS011;18955;51.224;8.482;2024-01-30T14:54:44;11.30;;;4.22;;
32505;SDS011;18955;51.224;8.482;2024-01-30T14:57:10;14.80;;;6.05;;
32505;SDS011;18955;51.224;8.482;2024-01-30T14:59:37;13.77;;;6.10;;
32505;SDS011;18955;51.224;8.482;2024-01-30T15:02:03;14.63;;;6.57;;
32505;SDS011;18955;51.224;8.482;2024-01-30T15:04:29;11.43;;;6.38;;
32505;SDS011;18955;51.224;8.482;2024-01-30T15:06:56;17.80;;;6.13;;
32505;SDS011;18955;51.224;8.482;2024-01-30T15:09:22;12.77;;;4.95;;
32505;SDS011;18955;51.224;8.482;2024-01-30T15:11:49;11.60;;;5.70;;
32505;SDS011;18955;51.224;8.482;2024-01-30T15:14:16;15.07;;;6.85;;
32505;SDS011;18955;51.224;8.482;2024-01-30T15:16:42;9.93;;;4.22;;
32505;SDS011;18955;51.224;8.482;2024-01-30T15:19:08;14.27;;;6.05;;
32505;SDS011;18955;51.224;8.482;2024-01-30T15:21:34;13.77;;;4.38;;
32505;SDS011;18955;51.224;8.482;2024-01-30T15:24:01;9.57;;;4.47;;
32505;SDS011;18955;51.224;8.482;2024-01-30T15:26:28;16.85;;;6.38;;
32505;SDS011;18955;51.224;8.482;2024-01-30T15:28:54;10.35;;;4.32;;
32505;SDS011;18955;51.224;8.482;2024-01-30T15:31:21;17.95;;;7.10;;
32505;SDS011;18955;51.224;8.482;2024-01-30T15:33:47;8.73;;;4.95;;